Time;durP1;ratioP1;P1;durP2;ratioP2;P2;SDS_P1;SDS_P2;PMS_P1;PMS_P2;Temp;Humidity;BMP_temperature;BMP_pressure;BME280_temperature;BME280_humidity;BME280_pressure;Samples;Min_cycle;Max_cycle;Signal;HPM_P1;HPM_P2
2023/12/15 00:00:47;;;;;;;56.30;26.88;;;;;;;4.64;100.00;102485.56;10444423;28;20040;-78
2023/12/15 00:05:47;;;;;;;60.30;27.08;;;;;;;4.56;100.00;102474.69;10411016;28;20053;-78
2023/12/15 00:10:48;;;;;;;54.28;26.35;;;;;;;4.60;100.00;102475.19;10450092;28;20528;-78
2023/12/15 00:15:48;;;;;;;62.50;26.40;;;;;;;4.66;100.00;102479.94;10431819;28;20037;-78
2023/12/15 00:20:49;;;;;;;57.70;27.20;;;;;;;4.69;100.00;102495.09;10423756;28;20060;-78
2023/12/15 00:25:49;;;;;;;76.82;28.63;;;;;;;4.72;100.00;102501.06;10454227;28;20386;-78
2023/12/15 00:30:50;;;;;;;60.50;27.58;;;;;;;4.65;100.00;102481.84;10454399;28;20068;-78
2023/12/15 00:35:50;;;;;;;64.20;27.30;;;;;;;4.73;100.00;102486.38;10426075;28;20033;-78
2023/12/15 00:40:51;;;;;;;69.22;29.30;;;;;;;4.74;100.00;102492.72;10442296;28;20071;-78
2023/12/15 00:45:51;;;;;;;67.47;28.98;;;;;;;4.67;100.00;102473.44;10420264;28;20056;-79
2023/12/15 00:50:52;;;;;;;63.25;28.27;;;;;;;4.80;100.00;102489.28;10435494;28;20061;-78
2023/12/15 00:55:52;;;;;;;62.03;26.92;;;;;;;4.85;100.00;102497.78;10408746;28;20406;-78
2023/12/15 01:00:53;;;;;;;60.15;26.80;;;;;;;4.90;100.00;102503.56;10425620;28;20045;-78
2023/12/15 01:05:53;;;;;;;67.65;30.02;;;;;;;4.90;100.00;102519.94;10424336;28;20044;-78
2023/12/15 01:10:54;;;;;;;64.82;26.92;;;;;;;4.95;100.00;102509.34;10421499;28;20033;-78
2023/12/15 01:15:54;;;;;;;72.18;31.40;;;;;;;4.99;100.00;102528.94;10438464;28;20053;-78
2023/12/15 01:20:55;;;;;;;78.05;32.03;;;;;;;5.00;100.00;102534.25;10399874;28;20029;-79
2023/12/15 01:25:55;;;;;;;74.70;31.98;;;;;;;5.05;100.00;102542.75;10423235;28;20037;-78
2023/12/15 01:30:55;;;;;;;82.78;33.35;;;;;;;5.10;100.00;102553.13;10419609;28;20052;-78
2023/12/15 01:35:56;;;;;;;77.78;32.10;;;;;;;5.17;100.00;102553.28;10424228;28;20051;-78
2023/12/15 01:40:56;;;;;;;81.95;33.50;;;;;;;5.23;100.00;102566.22;10423509;28;20061;-77
2023/12/15 01:45:57;;;;;;;88.47;34.83;;;;;;;5.26;100.00;102569.44;10457497;28;20102;-78
2023/12/15 01:50:57;;;;;;;87.82;35.15;;;;;;;5.27;100.00;102564.81;10423809;28;20069;-78
2023/12/15 01:55:58;;;;;;;95.65;35.13;;;;;;;5.25;100.00;102545.06;10440905;28;20044;-79
2023/12/15 02:00:58;;;;;;;89.80;36.13;;;;;;;5.36;100.00;102574.69;10407430;28;20033;-78
2023/12/15 02:05:59;;;;;;;92.25;35.30;;;;;;;5.38;100.00;102572.63;10421863;28;20049;-79
2023/12/15 02:10:59;;;;;;;100.90;38.17;;;;;;;5.37;100.00;102576.38;10433749;28;20452;-79
2023/12/15 02:16:00;;;;;;;96.78;36.90;;;;;;;5.45;100.00;102600.91;10420157;28;20056;-79
2023/12/15 02:21:00;;;;;;;104.28;39.53;;;;;;;5.47;100.00;102600.75;10413451;28;20045;-79
2023/12/15 02:26:01;;;;;;;108.13;37.45;;;;;;;5.35;100.00;102583.91;10439899;28;20060;-79
2023/12/15 02:31:01;;;;;;;100.82;36.05;;;;;;;5.58;100.00;102624.09;10439000;28;20087;-79
2023/12/15 02:36:02;;;;;;;103.30;36.97;;;;;;;5.58;100.00;102626.81;10437074;28;20048;-79
2023/12/15 02:41:02;;;;;;;120.00;40.90;;;;;;;5.58;100.00;102621.34;10430630;28;20082;-78
2023/12/15 02:46:03;;;;;;;115.80;40.55;;;;;;;5.65;100.00;102611.44;10420110;28;20159;-79
2023/12/15 02:51:04;;;;;;;141.45;43.65;;;;;;;5.63;100.00;102591.63;10421991;28;20036;-79
2023/12/15 02:56:05;;;;;;;124.35;40.78;;;;;;;5.53;100.00;102572.72;10438327;28;20048;-78
2023/12/15 03:01:05;;;;;;;116.03;39.65;;;;;;;5.75;100.00;102606.59;10436851;28;20037;-79
2023/12/15 03:06:06;;;;;;;122.72;42.70;;;;;;;5.82;100.00;102613.03;10437123;28;20071;-79
2023/12/15 03:11:07;;;;;;;130.85;41.25;;;;;;;5.85;100.00;102607.22;10436008;28;20039;-79
2023/12/15 03:16:09;;;;;;;115.57;39.08;;;;;;;5.86;100.00;102628.03;10419640;28;20060;-76
2023/12/15 03:21:09;;;;;;;113.22;38.72;;;;;;;5.92;100.00;102636.56;10420601;28;20060;-77
2023/12/15 03:26:10;;;;;;;120.93;43.50;;;;;;;5.93;100.00;102624.59;10421217;28;20095;-79
2023/12/15 03:31:10;;;;;;;98.43;39.42;;;;;;;5.98;100.00;102628.50;10433288;28;20045;-79
2023/12/15 03:36:11;;;;;;;95.50;39.67;;;;;;;5.90;100.00;102631.25;10417001;28;20121;-78
2023/12/15 03:41:12;;;;;;;107.00;39.45;;;;;;;5.88;100.00;102648.88;10430830;28;20044;-78
2023/12/15 03:46:13;;;;;;;99.10;38.78;;;;;;;5.85;100.00;102650.94;10418739;28;20464;-78
2023/12/15 03:51:13;;;;;;;110.47;42.15;;;;;;;5.85;100.00;102656.41;10454905;28;20148;-78
2023/12/15 03:56:24;;;;;;;101.25;42.10;;;;;;;5.78;100.00;102639.00;10420766;28;20515;-79
2023/12/15 04:01:25;;;;;;;110.13;41.25;;;;;;;5.37;100.00;102592.75;10403496;28;20097;-79
2023/12/15 04:06:25;;;;;;;104.72;38.72;;;;;;;5.68;100.00;102657.50;10435497;28;20061;-79
2023/12/15 04:11:26;;;;;;;96.55;38.35;;;;;;;5.60;100.00;102663.00;10434080;28;20045;-78
2023/12/15 04:16:26;;;;;;;108.85;40.15;;;;;;;5.46;100.00;102659.16;10435859;28;20044;-79
2023/12/15 04:21:27;;;;;;;96.97;37.95;;;;;;;5.23;100.00;102649.00;10420293;28;20095;-78
2023/12/15 04:26:27;;;;;;;111.63;41.85;;;;;;;4.95;100.00;102637.63;10453414;28;20037;-79
2023/12/15 04:31:28;;;;;;;112.65;40.88;;;;;;;5.22;100.00;102688.22;10433079;28;20044;-78
2023/12/15 04:36:28;;;;;;;114.90;41.20;;;;;;;5.20;100.00;102690.28;10452258;28;20048;-79
2023/12/15 04:41:29;;;;;;;111.35;41.20;;;;;;;5.15;100.00;102675.47;10454874;28;20091;-78
2023/12/15 04:46:30;;;;;;;121.95;41.78;;;;;;;5.33;100.00;102695.19;10443104;28;20052;-78
2023/12/15 04:51:30;;;;;;;112.00;42.00;;;;;;;5.42;100.00;102705.09;10443368;28;20051;-77
2023/12/15 04:56:31;;;;;;;126.38;43.58;;;;;;;5.31;100.00;102691.78;10401159;28;20068;-79
2023/12/15 05:01:31;;;;;;;116.05;43.03;;;;;;;5.41;100.00;102708.84;10459367;28;20847;-78
2023/12/15 05:06:32;;;;;;;117.82;41.20;;;;;;;5.47;100.00;102719.06;10441078;28;20512;-78
2023/12/15 05:11:34;;;;;;;130.13;44.22;;;;;;;5.62;100.00;102732.88;10424957;28;20044;-78
2023/12/15 05:16:34;;;;;;;119.97;42.33;;;;;;;5.26;100.00;102675.09;10425701;28;20063;-77
2023/12/15 05:21:35;;;;;;;112.53;39.25;;;;;;;5.77;100.00;102741.19;10426067;28;20029;-77
2023/12/15 05:26:35;;;;;;;108.63;43.00;;;;;;;5.75;100.00;102737.78;10457702;28;20526;-78
2023/12/15 05:31:36;;;;;;;118.10;41.22;;;;;;;5.84;100.00;102752.25;10440570;28;20048;-76
2023/12/15 05:36:36;;;;;;;118.53;42.05;;;;;;;5.85;100.00;102762.19;10439819;28;20041;-79
2023/12/15 05:41:43;;;;;;;105.03;38.47;;;;;;;5.70;100.00;102740.16;10426471;28;20436;-78
2023/12/15 05:46:44;;;;;;;97.63;40.05;;;;;;;5.73;100.00;102761.69;10423128;28;20153;-77
2023/12/15 05:51:48;;;;;;;97.55;38.50;;;;;;;5.68;100.00;102753.16;10407898;28;20497;-77
2023/12/15 05:56:48;;;;;;;104.97;36.72;;;;;;;5.57;100.00;102778.13;10394847;28;20029;-78
2023/12/15 06:01:49;;;;;;;105.10;38.33;;;;;;;5.45;100.00;102783.94;10399035;28;20095;-78
2023/12/15 06:06:50;;;;;;;104.95;38.15;;;;;;;5.49;100.00;102786.34;10438155;28;20037;-78
2023/12/15 06:11:50;;;;;;;100.63;36.53;;;;;;;5.19;100.00;102758.75;10439322;28;20044;-79
2023/12/15 06:16:51;;;;;;;96.03;34.35;;;;;;;5.29;100.00;102783.97;10439824;28;20037;-77
2023/12/15 06:21:51;;;;;;;109.93;36.70;;;;;;;5.20;100.00;102790.47;10439740;28;20037;-79
2023/12/15 06:26:52;;;;;;;84.60;33.95;;;;;;;5.24;100.00;102795.41;10454091;28;20075;-78
2023/12/15 06:31:52;;;;;;;86.05;32.55;;;;;;;5.10;100.00;102789.78;10438913;28;20048;-79
2023/12/15 06:36:53;;;;;;;93.95;32.40;;;;;;;4.70;100.00;102769.66;10441009;28;20045;-78
2023/12/15 06:41:53;;;;;;;95.70;34.55;;;;;;;5.04;100.00;102841.34;10419198;28;20033;-78
2023/12/15 06:46:54;;;;;;;104.30;34.72;;;;;;;5.04;100.00;102837.72;10438693;28;20040;-78
2023/12/15 06:51:54;;;;;;;97.95;34.58;;;;;;;4.98;100.00;102827.50;10437633;28;20057;-78
2023/12/15 06:56:55;;;;;;;94.13;34.75;;;;;;;5.02;100.00;102856.16;10451617;28;20056;-78
2023/12/15 07:01:55;;;;;;;105.38;34.95;;;;;;;5.05;100.00;102842.19;10449517;28;20040;-78
2023/12/15 07:06:56;;;;;;;88.38;32.17;;;;;;;5.00;100.00;102831.78;10403942;28;20049;-78
2023/12/15 07:11:58;;;;;;;82.55;31.30;;;;;;;5.23;100.00;102848.34;10420801;28;20064;-78
2023/12/15 07:16:58;;;;;;;81.50;34.45;;;;;;;5.29;100.00;102849.50;10455652;28;20044;-78
2023/12/15 07:21:58;;;;;;;85.85;33.17;;;;;;;5.32;100.00;102838.25;10420702;28;20041;-78
2023/12/15 07:26:59;;;;;;;89.05;33.53;;;;;;;5.46;100.00;102856.69;10453566;28;20044;-78
2023/12/15 07:31:59;;;;;;;98.15;33.83;;;;;;;4.88;100.00;102766.75;10418658;28;20041;-78
2023/12/15 07:37:00;;;;;;;95.65;34.75;;;;;;;5.54;100.00;102890.47;10434622;28;20029;-78
2023/12/15 07:42:00;;;;;;;89.78;33.42;;;;;;;5.61;100.00;102906.03;10401508;28;20083;-78
2023/12/15 07:47:01;;;;;;;83.30;33.38;;;;;;;5.73;100.00;102908.44;10419858;28;20044;-78
2023/12/15 07:52:01;;;;;;;97.13;35.13;;;;;;;5.71;100.00;102922.25;10453761;28;20072;-78
2023/12/15 07:57:02;;;;;;;96.13;38.17;;;;;;;5.63;100.00;102919.53;10435588;28;20059;-78
2023/12/15 08:02:03;;;;;;;89.30;35.95;;;;;;;5.72;100.00;102945.81;10401984;28;20356;-78
2023/12/15 08:07:04;;;;;;;99.07;34.97;;;;;;;5.68;100.00;102949.91;10410382;28;20055;-78
2023/12/15 08:12:05;;;;;;;88.20;34.90;;;;;;;5.83;100.00;102970.09;10433492;28;20051;-78
2023/12/15 08:17:05;;;;;;;82.70;34.13;;;;;;;5.76;100.00;102962.75;10439392;28;20404;-77
2023/12/15 08:22:06;;;;;;;91.80;33.72;;;;;;;5.97;100.00;102981.38;10426179;28;20055;-78
2023/12/15 08:27:06;;;;;;;86.38;35.63;;;;;;;6.02;100.00;102985.31;10425516;28;20057;-78
2023/12/15 08:32:07;;;;;;;86.78;34.03;;;;;;;6.05;100.00;102995.03;10459648;28;20504;-78
2023/12/15 08:37:07;;;;;;;86.05;35.60;;;;;;;5.95;100.00;102978.81;10408745;28;20048;-79
2023/12/15 08:42:08;;;;;;;88.38;32.33;;;;;;;5.83;100.00;102975.56;10424721;28;20427;-79
2023/12/15 08:47:08;;;;;;;71.43;31.75;;;;;;;5.99;100.00;103002.03;10408800;28;20080;-78
2023/12/15 08:52:08;;;;;;;77.40;30.42;;;;;;;5.75;100.00;102967.34;10425102;28;20152;-78
2023/12/15 08:57:09;;;;;;;70.20;29.48;;;;;;;5.87;100.00;103014.34;10458283;28;20040;-77
2023/12/15 09:02:11;;;;;;;56.95;27.73;;;;;;;5.98;100.00;103032.31;10406376;28;20067;-78
2023/12/15 09:07:11;;;;;;;74.65;30.58;;;;;;;6.01;100.00;103037.44;10439325;28;20072;-79
2023/12/15 09:12:12;;;;;;;61.72;28.80;;;;;;;6.17;100.00;103064.78;10424318;28;20056;-78
2023/12/15 09:17:13;;;;;;;67.93;28.25;;;;;;;6.15;100.00;103066.81;10408769;28;20048;-78
2023/12/15 09:22:13;;;;;;;61.90;27.27;;;;;;;6.10;100.00;103068.34;10423941;28;20044;-79
2023/12/15 09:27:14;;;;;;;63.50;27.92;;;;;;;6.23;100.00;103080.50;10405755;28;20090;-78
2023/12/15 09:32:14;;;;;;;59.85;25.58;;;;;;;6.28;100.00;103103.75;10421285;28;20127;-78
2023/12/15 09:37:14;;;;;;;60.90;26.35;;;;;;;6.30;100.00;103097.09;10410880;28;20045;-78
2023/12/15 09:42:15;;;;;;;59.03;23.83;;;;;;;6.36;100.00;103106.50;10423225;28;20037;-79
2023/12/15 09:47:15;;;;;;;58.38;21.80;;;;;;;6.39;100.00;103100.69;10438471;28;20048;-78
2023/12/15 09:52:16;;;;;;;56.13;21.60;;;;;;;6.34;100.00;103097.59;10427912;28;20076;-79
2023/12/15 09:57:17;;;;;;;42.95;19.27;;;;;;;6.43;100.00;103091.13;10411584;28;20033;-79
2023/12/15 10:02:18;;;;;;;51.47;20.58;;;;;;;6.61;100.00;103110.06;10417220;28;20043;-78
2023/12/15 10:07:19;;;;;;;44.53;19.17;;;;;;;6.71;100.00;103137.25;10423765;28;20488;-79
2023/12/15 10:12:19;;;;;;;46.15;18.33;;;;;;;6.86;100.00;103140.97;10445799;28;20040;-79
2023/12/15 10:17:20;;;;;;;41.70;16.33;;;;;;;6.94;100.00;103146.44;10421423;28;20033;-80
2023/12/15 10:22:20;;;;;;;40.40;16.60;;;;;;;6.93;100.00;103138.44;10451495;28;20044;-78
2023/12/15 10:27:21;;;;;;;42.70;16.00;;;;;;;7.05;100.00;103151.56;10435389;28;20894;-78
2023/12/15 10:32:21;;;;;;;34.70;15.68;;;;;;;7.05;100.00;103162.53;10426728;28;20134;-78
2023/12/15 10:37:22;;;;;;;42.40;16.40;;;;;;;7.18;100.00;103166.59;10437376;28;20037;-79
2023/12/15 10:42:23;;;;;;;40.60;15.57;;;;;;;7.14;100.00;103177.06;10436177;28;20039;-78
2023/12/15 10:47:24;;;;;;;38.20;16.08;;;;;;;7.17;100.00;103162.13;10433857;28;20090;-79
2023/12/15 10:52:24;;;;;;;36.42;13.80;;;;;;;7.23;100.00;103164.19;10416405;28;20124;-79
2023/12/15 10:57:25;;;;;;;38.00;13.90;;;;;;;7.23;100.00;103166.91;10432904;28;20041;-79
2023/12/15 11:02:28;;;;;;;32.45;13.35;;;;;;;7.37;100.00;103157.97;10415057;28;20488;-79
2023/12/15 11:07:28;;;;;;;36.10;13.57;;;;;;;7.37;100.00;103181.78;10432811;28;20047;-80
2023/12/15 11:12:30;;;;;;;32.38;11.93;;;;;;;7.40;100.00;103186.91;10432947;28;20036;-79
2023/12/15 11:17:31;;;;;;;30.30;13.00;;;;;;;7.46;100.00;103176.09;10467182;28;20047;-79
2023/12/15 11:22:41;;;;;;;32.13;11.95;;;;;;;7.52;100.00;103195.59;10416035;28;20036;-80
2023/12/15 11:28:07;;;;;;;29.17;11.13;;;;;;;7.68;100.00;103192.78;10423542;28;20044;-79
2023/12/15 11:33:39;;;;;;;35.15;11.20;;;;;;;7.71;100.00;103195.19;10427159;28;20049;-79
2023/12/15 11:38:40;;;;;;;29.63;12.50;;;;;;;7.34;100.00;103128.19;10453858;28;20075;-79
2023/12/15 11:43:43;;;;;;;38.00;12.43;;;;;;;7.74;100.00;103192.09;10422270;28;20110;-79
2023/12/15 11:48:43;;;;;;;33.70;9.85;;;;;;;7.63;100.00;103182.38;10434834;28;20033;-79
2023/12/15 11:53:47;;;;;;;34.85;11.93;;;;;;;7.78;100.00;103185.19;10461314;28;20056;-79
2023/12/15 11:58:47;;;;;;;32.63;9.40;;;;;;;7.88;100.00;103176.75;10426417;28;20049;-80
2023/12/15 12:03:48;;;;;;;32.85;12.15;;;;;;;7.87;100.00;103192.38;10443210;28;20057;-78
2023/12/15 12:08:49;;;;;;;31.98;12.18;;;;;;;7.93;100.00;103187.19;10425820;28;20048;-79
2023/12/15 12:13:56;;;;;;;22.10;10.35;;;;;;;7.88;100.00;103177.63;10425406;28;20037;-77
2023/12/15 12:18:57;;;;;;;30.33;9.48;;;;;;;8.05;100.00;103185.75;10408012;28;20048;-79
2023/12/15 12:23:59;;;;;;;38.40;11.88;;;;;;;8.21;100.00;103177.41;10409470;28;20072;-79
2023/12/15 12:28:59;;;;;;;30.33;9.57;;;;;;;8.27;100.00;103195.03;10430802;28;20037;-79
2023/12/15 12:34:00;;;;;;;36.33;13.27;;;;;;;8.43;100.00;103177.63;10405212;28;20037;-80
2023/12/15 12:39:01;;;;;;;30.35;9.88;;;;;;;8.50;100.00;103178.59;10422697;28;20037;-80
2023/12/15 12:44:01;;;;;;;38.78;10.73;;;;;;;8.63;100.00;103198.03;10442638;28;20053;-80
2023/12/15 12:49:05;;;;;;;36.65;9.70;;;;;;;8.53;100.00;103194.69;10417381;28;20053;-80
2023/12/15 12:54:05;;;;;;;30.02;7.88;;;;;;;8.99;100.00;103213.88;10380405;28;20045;-79
2023/12/15 12:59:06;;;;;;;29.67;7.15;;;;;;;9.01;100.00;103156.84;10401827;28;20114;-79
2023/12/15 13:04:06;;;;;;;22.40;6.07;;;;;;;9.70;100.00;103185.94;10416903;28;20079;-80
2023/12/15 13:09:07;;;;;;;30.48;6.25;;;;;;;10.42;100.00;103222.78;10422896;28;20080;-80
2023/12/15 13:14:07;;;;;;;28.55;6.95;;;;;;;10.86;100.00;103235.50;10416332;28;20069;-80
2023/12/15 13:19:08;;;;;;;27.38;8.60;;;;;;;10.03;100.00;103219.34;10418061;28;20065;-80
2023/12/15 13:24:08;;;;;;;36.17;10.23;;;;;;;9.66;100.00;103225.88;10397977;28;20037;-80
2023/12/15 13:29:08;;;;;;;30.20;9.20;;;;;;;9.25;100.00;103231.81;10383608;28;20041;-78
2023/12/15 13:34:09;;;;;;;27.10;11.40;;;;;;;8.92;100.00;103226.63;10416099;28;20030;-78
2023/12/15 13:39:09;;;;;;;37.70;11.80;;;;;;;8.84;100.00;103266.00;10397769;28;20064;-79
2023/12/15 13:44:10;;;;;;;32.17;9.32;;;;;;;8.78;100.00;103265.91;10357230;28;20034;-80
2023/12/15 13:49:10;;;;;;;21.00;9.02;;;;;;;8.67;100.00;103261.69;10418162;28;20037;-80
2023/12/15 13:54:11;;;;;;;29.27;10.07;;;;;;;8.58;100.00;103263.66;10414635;28;20120;-80
2023/12/15 13:59:12;;;;;;;34.40;9.82;;;;;;;8.54;100.00;103256.81;10400509;28;20048;-81
2023/12/15 14:04:12;;;;;;;22.05;9.15;;;;;;;8.51;100.00;103267.31;10399282;28;20040;-79
2023/12/15 14:09:13;;;;;;;31.38;10.10;;;;;;;8.55;100.00;103279.63;10440072;28;20120;-81
2023/12/15 14:14:13;;;;;;;24.17;8.80;;;;;;;8.42;100.00;103280.22;10410682;28;20099;-77
2023/12/15 14:19:16;;;;;;;30.10;10.70;;;;;;;8.31;100.00;103266.88;10400537;28;20038;-80
2023/12/15 14:24:18;;;;;;;31.08;10.10;;;;;;;8.31;100.00;103288.81;10409355;28;20607;-80
2023/12/15 14:29:19;;;;;;;27.85;12.30;;;;;;;8.30;100.00;103320.91;10410348;28;20119;-79
2023/12/15 14:34:20;;;;;;;30.92;10.23;;;;;;;8.27;100.00;103324.03;10392561;28;20049;-80
2023/12/15 14:39:20;;;;;;;26.10;11.15;;;;;;;8.12;100.00;103334.88;10380556;28;20044;-80
2023/12/15 14:44:22;;;;;;;36.00;10.18;;;;;;;8.11;100.00;103316.72;10400860;28;20420;-80
2023/12/15 14:49:22;;;;;;;39.03;10.80;;;;;;;8.06;100.00;103313.63;10420077;28;20108;-80
2023/12/15 14:54:23;;;;;;;32.28;11.30;;;;;;;7.93;100.00;103294.16;10413555;28;20064;-81
2023/12/15 14:59:25;;;;;;;23.58;10.90;;;;;;;7.92;100.00;103311.63;10405574;28;20033;-80
2023/12/15 15:04:26;;;;;;;22.90;9.13;;;;;;;7.80;100.00;103313.94;10392426;28;20393;-80
2023/12/15 15:09:26;;;;;;;25.08;9.60;;;;;;;7.79;100.00;103328.66;10387417;28;20129;-80
2023/12/15 15:14:27;;;;;;;32.70;12.90;;;;;;;7.66;100.00;103320.97;10400999;28;20041;-81
2023/12/15 15:19:28;;;;;;;49.97;18.00;;;;;;;7.58;100.00;103337.44;10431248;28;20045;-80
2023/12/15 15:24:28;;;;;;;42.88;15.52;;;;;;;7.21;100.00;103295.88;10413338;28;20049;-79
2023/12/15 15:29:29;;;;;;;32.45;16.27;;;;;;;7.53;100.00;103329.75;10386397;28;20133;-79
2023/12/15 15:34:29;;;;;;;28.33;11.13;;;;;;;7.46;100.00;103354.25;10389379;28;20038;-80
2023/12/15 15:39:29;;;;;;;25.40;12.68;;;;;;;7.24;100.00;103346.75;10407678;28;20048;-79
2023/12/15 15:44:31;;;;;;;26.70;11.25;;;;;;;7.24;100.00;103369.50;10429258;28;20044;-81
2023/12/15 15:49:32;;;;;;;37.90;15.48;;;;;;;7.05;100.00;103359.75;10398489;28;20068;-81
2023/12/15 15:54:33;;;;;;;27.48;13.68;;;;;;;6.83;100.00;103352.19;10411618;28;20031;-80
2023/12/15 15:59:33;;;;;;;35.40;13.52;;;;;;;6.87;100.00;103368.09;10424967;28;20036;-80
2023/12/15 16:04:34;;;;;;;25.02;14.57;;;;;;;6.54;100.00;103322.53;10394306;28;20033;-80
2023/12/15 16:09:34;;;;;;;34.17;15.27;;;;;;;6.70;100.00;103368.22;10395332;28;20045;-81
2023/12/15 16:14:35;;;;;;;40.78;15.18;;;;;;;6.55;100.00;103371.63;10402046;28;20068;-79
2023/12/15 16:19:36;;;;;;;34.88;16.63;;;;;;;6.38;100.00;103375.31;10424121;28;20041;-80
2023/12/15 16:24:36;;;;;;;36.05;14.13;;;;;;;6.37;100.00;103384.56;10391699;28;20546;-79
2023/12/15 16:29:36;;;;;;;32.30;15.93;;;;;;;6.26;100.00;103408.44;10406550;28;20045;-79
2023/12/15 16:34:37;;;;;;;34.08;16.25;;;;;;;5.80;100.00;103339.44;10424009;28;20041;-79
2023/12/15 16:39:38;;;;;;;40.45;17.58;;;;;;;6.06;100.00;103377.75;10403479;28;20048;-80
2023/12/15 16:44:51;;;;;;;35.33;17.15;;;;;;;6.06;100.00;103418.75;10383371;28;20049;-80
2023/12/15 16:49:52;;;;;;;42.13;16.35;;;;;;;5.97;100.00;103413.41;10421139;28;20033;-80
2023/12/15 16:54:53;;;;;;;32.75;17.98;;;;;;;6.03;100.00;103445.56;10424465;28;20041;-80
2023/12/15 16:59:53;;;;;;;35.47;17.27;;;;;;;5.84;100.00;103416.53;10423360;28;20041;-79
2023/12/15 17:04:55;;;;;;;45.85;18.48;;;;;;;5.92;100.00;103415.75;10413115;28;20034;-80
2023/12/15 17:09:56;;;;;;;35.55;19.23;;;;;;;5.84;100.00;103422.00;10410472;28;20053;-79
2023/12/15 17:14:56;;;;;;;37.78;18.88;;;;;;;5.85;100.00;103394.50;10410900;28;20061;-80
2023/12/15 17:19:57;;;;;;;41.25;17.33;;;;;;;5.85;100.00;103407.34;10394158;28;20285;-80
2023/12/15 17:24:57;;;;;;;27.75;15.80;;;;;;;5.35;100.00;103334.19;10385966;28;20053;-79
2023/12/15 17:29:58;;;;;;;36.42;17.23;;;;;;;5.78;100.00;103387.94;10416280;28;20320;-80
2023/12/15 17:34:59;;;;;;;34.05;16.55;;;;;;;5.78;100.00;103403.50;10409933;28;20037;-80
2023/12/15 17:39:59;;;;;;;46.28;20.75;;;;;;;5.72;100.00;103401.41;10416906;28;20053;-80
2023/12/15 17:45:00;;;;;;;44.20;17.85;;;;;;;5.73;100.00;103397.69;10393453;28;20065;-80
2023/12/15 17:50:00;;;;;;;36.03;16.48;;;;;;;5.69;100.00;103424.47;10405603;28;20067;-80
2023/12/15 17:55:01;;;;;;;33.85;16.80;;;;;;;5.67;100.00;103421.03;10401365;28;20116;-79
2023/12/15 18:00:01;;;;;;;39.33;17.83;;;;;;;5.75;100.00;103421.09;10415000;28;20037;-80
2023/12/15 18:05:02;;;;;;;30.08;15.77;;;;;;;5.64;100.00;103404.94;10383629;28;20053;-81
2023/12/15 18:10:02;;;;;;;34.72;16.73;;;;;;;5.56;100.00;103410.34;10392025;28;20139;-80
2023/12/15 18:15:03;;;;;;;29.83;14.98;;;;;;;5.61;100.00;103416.19;10380879;28;20034;-80
2023/12/15 18:20:04;;;;;;;30.23;16.55;;;;;;;5.72;100.00;103415.09;10382024;28;20362;-80
2023/12/15 18:25:05;;;;;;;34.92;18.17;;;;;;;5.64;100.00;103404.94;10406880;28;20464;-80
2023/12/15 18:30:08;;;;;;;44.25;18.85;;;;;;;5.73;100.00;103445.00;10419029;28;20053;-80
2023/12/15 18:35:08;;;;;;;34.47;18.42;;;;;;;5.60;100.00;103430.88;10394808;28;20108;-78
2023/12/15 18:40:09;;;;;;;35.88;18.40;;;;;;;5.27;100.00;103370.47;10383128;28;20082;-79
2023/12/15 18:45:10;;;;;;;33.92;16.98;;;;;;;5.62;100.00;103437.91;10396492;28;20045;-79
2023/12/15 18:50:11;;;;;;;41.60;17.83;;;;;;;5.59;100.00;103448.28;10376780;28;20049;-79
2023/12/15 18:55:11;;;;;;;43.65;17.83;;;;;;;5.41;100.00;103451.88;10413937;28;20038;-80
2023/12/15 19:00:12;;;;;;;28.80;15.75;;;;;;;5.31;100.00;103462.03;10411920;28;20098;-80
2023/12/15 19:05:12;;;;;;;35.17;16.85;;;;;;;5.21;100.00;103458.53;10377576;28;20071;-79
2023/12/15 19:10:13;;;;;;;27.60;16.42;;;;;;;5.22;100.00;103477.47;10378463;28;20079;-79
2023/12/15 19:15:14;;;;;;;33.05;16.70;;;;;;;5.24;100.00;103488.25;10392360;28;20591;-77
2023/12/15 19:20:15;;;;;;;32.47;19.38;;;;;;;5.29;100.00;103502.28;10413719;28;20065;-80
2023/12/15 19:25:16;;;;;;;39.85;17.08;;;;;;;5.33;100.00;103498.25;10388379;28;20045;-79
2023/12/15 19:30:16;;;;;;;29.08;17.45;;;;;;;5.35;100.00;103518.06;10408980;28;20064;-79
2023/12/15 19:35:17;;;;;;;28.90;15.05;;;;;;;5.28;100.00;103500.59;10378757;28;20069;-79
2023/12/15 19:40:18;;;;;;;36.25;15.60;;;;;;;5.16;100.00;103488.19;10405544;28;20048;-79
2023/12/15 19:45:19;;;;;;;34.10;18.75;;;;;;;5.27;100.00;103515.25;10418771;28;20041;-79
2023/12/15 19:50:21;;;;;;;36.97;17.77;;;;;;;5.31;100.00;103510.34;10377592;28;20164;-78
2023/12/15 19:55:21;;;;;;;30.45;15.85;;;;;;;5.23;100.00;103508.41;10394917;28;20136;-78
2023/12/15 20:00:22;;;;;;;32.08;15.93;;;;;;;5.21;100.00;103494.06;10388993;28;20080;-78
2023/12/15 20:05:22;;;;;;;42.58;15.80;;;;;;;5.35;100.00;103512.59;10377908;28;20041;-80
2023/12/15 20:10:23;;;;;;;42.58;16.80;;;;;;;5.17;100.00;103498.09;10403473;28;20049;-79
2023/12/15 20:15:24;;;;;;;32.58;15.75;;;;;;;5.24;100.00;103523.78;10394667;28;20053;-79
2023/12/15 20:20:25;;;;;;;33.42;15.60;;;;;;;5.17;100.00;103519.94;10402037;28;20564;-78
2023/12/15 20:25:25;;;;;;;41.13;16.55;;;;;;;5.04;100.00;103521.16;10405451;28;20037;-80
2023/12/15 20:30:26;;;;;;;32.13;15.90;;;;;;;5.10;100.00;103527.88;10414898;28;20049;-80
2023/12/15 20:35:26;;;;;;;30.95;17.17;;;;;;;4.93;100.00;103513.16;10401131;28;20113;-79
2023/12/15 20:40:27;;;;;;;35.17;17.13;;;;;;;4.80;100.00;103499.03;10381812;28;20143;-79
2023/12/15 20:45:27;;;;;;;29.50;17.08;;;;;;;4.80;100.00;103501.75;10409780;28;20041;-79
2023/12/15 20:50:28;;;;;;;36.90;17.83;;;;;;;4.98;100.00;103515.44;10385046;28;20088;-80
2023/12/15 20:55:28;;;;;;;32.08;16.33;;;;;;;5.14;100.00;103531.16;10395260;28;20124;-80
2023/12/15 21:00:29;;;;;;;27.05;17.45;;;;;;;5.26;100.00;103524.47;10402024;28;20483;-80
2023/12/15 21:05:30;;;;;;;39.83;19.33;;;;;;;5.35;100.00;103531.72;10404527;28;20040;-80
2023/12/15 21:10:30;;;;;;;50.60;18.90;;;;;;;5.42;100.00;103529.25;10383782;28;20045;-80
2023/12/15 21:15:31;;;;;;;32.78;18.75;;;;;;;5.50;100.00;103542.13;10403002;28;20042;-80
2023/12/15 21:20:31;;;;;;;32.22;16.88;;;;;;;5.49;100.00;103540.44;10399372;28;20038;-80
2023/12/15 21:25:32;;;;;;;29.17;15.85;;;;;;;5.23;100.00;103486.56;10418119;28;20103;-80
2023/12/15 21:30:33;;;;;;;35.95;15.38;;;;;;;5.57;100.00;103544.09;10405530;28;20041;-80
2023/12/15 21:35:36;;;;;;;26.95;14.63;;;;;;;5.69;100.00;103541.16;10394748;28;20083;-81
2023/12/15 21:40:37;;;;;;;33.95;14.93;;;;;;;5.68;100.00;103545.72;10398891;28;20033;-81
2023/12/15 21:45:37;;;;;;;25.05;13.38;;;;;;;5.83;100.00;103566.06;10398560;28;20025;-80
2023/12/15 21:50:37;;;;;;;32.30;15.30;;;;;;;5.89;100.00;103566.41;10401686;28;20146;-78
2023/12/15 21:55:38;;;;;;;28.88;12.23;;;;;;;5.72;100.00;103525.25;10399615;28;20456;-80
2023/12/15 22:00:38;;;;;;;29.27;12.57;;;;;;;5.87;100.00;103542.00;10414959;28;20041;-80
2023/12/15 22:05:39;;;;;;;30.35;11.77;;;;;;;5.88;100.00;103526.44;10363435;28;20048;-80
2023/12/15 22:10:39;;;;;;;30.13;11.70;;;;;;;5.97;100.00;103547.38;10414283;28;20046;-80
2023/12/15 22:15:40;;;;;;;43.60;13.52;;;;;;;6.03;100.00;103563.16;10378430;28;20033;-80
2023/12/15 22:20:40;;;;;;;36.35;11.15;;;;;;;6.15;100.00;103578.31;10382196;28;20043;-79
2023/12/15 22:25:41;;;;;;;21.30;9.90;;;;;;;6.07;100.00;103556.34;10380628;28;20480;-79
2023/12/15 22:30:42;;;;;;;26.58;9.85;;;;;;;6.06;100.00;103535.50;10415006;28;20037;-78